Iskenderun, Turkey
Current Conditions -  °F | °C
As of 5:50 PM on Thursday 30 Oct 2014 (Local Time) from LTDA Reporting Station
Scattered Clouds Scattered Clouds  
Wind Chill: 64°   Ceiling: Unl
Heat Index: 64°   Visibility: 6mi
Dew Point: 59°   Wind: 0mph
Humidity: 83%   Direction: NA
Pressure: 29.94"   Gusts: NA
Location:  36.58°N, 36.17°E
Report Text: LTDA 301450Z 00000KT 9999 FEW025CB SCT030 18/15 Q1014
Loading
Personal Weather Stations






























Interactive Weather Map
Tropical Storm Tracking
New forecast layout! Learn more

10-Day Weather Forecast

Advertisements
Track Severe Weather on mobile